Nearby METAR Reports

 

KBUF - Buffalo/Cheektow, New York, USA
Distance from station: 0 0mi, 0km
Updated: 06/23/2021 3:54am
Clear
Clear
 Wind from W
Wind: W 8 mph , 13 km/h
Temperature: 55°F , 13°C
Dew Point: 45°F , 7°C
Humidity: 67%
Barometer: 30.05 inHg , 1017.6 hPa
Clouds: Clear
Visibility: 10 miles , 16 km
2021/06/23 07:54 KBUF 230754Z 28007KT 10SM CLR 13/07 A3005 RMK AO2 SLP177 T01330067
KIAG - Niagara Falls, New York, USA
Distance from station: NW 16mi, 26km
Updated: 06/23/2021 3:53am
Clear
Clear
 Wind from WNW
Wind: WNW 7 mph , 11 km/h
Temperature: 52°F , 11°C
Dew Point: 45°F , 7°C
Humidity: 77%
Barometer: 30.05 inHg , 1017.6 hPa
Clouds: Clear
Visibility: 10 miles , 16 km
2021/06/23 07:53 KIAG 230753Z AUTO 29006KT 10SM CLR 11/07 A3005 RMK AO2 SLP178 T01060067 $
 
CWPC - Port Colborne(Au, Ontario, Canada
Distance from station: W 27mi, 43km
Updated: 06/23/2021 4:00am

 Wind from NW
Wind: NW 10 mph , 17 km/h
Temperature: 55°F , 13°C
Dew Point: 45°F , 7°C
Humidity: 67%
2021/06/23 08:00 CWPC 230800Z AUTO 31009KT 13/07 RMK AO1 SLP187 T01330072 53011
CYSN - St. Catharines A, Ontario, Canada
Distance from station: NW 29mi, 46km
Updated: 06/22/2021 9:00pm
NOT Current
Few Clouds
Few Clouds
 Wind from WNW
Wind: WNW 9 mph , 15 km/h, Gust: 17 mph , 28 km/h
Temperature: 61°F , 16°C
Dew Point: 41°F , 5°C
Humidity: 48%
Barometer: 29.95 inHg , 1014.2 hPa
Clouds: Few Clouds
Visibility: 15 miles , 24 km
Cloud details: Few Clouds 8000 ft
2021/06/23 01:00 CYSN 230100Z 29008G15KT 15SM FEW080 16/05 A2995 RMK AC1 LAST STFD OBS/NEXT 23 1100UTC SLP142 DENSITY ALT 600FT
 
CWWZ - Port Weller (mar, Ontario, Canada
Distance from station: NW 33mi, 53km
Updated: 06/23/2021 4:00am

 Wind from WSW
Wind: WSW 7 mph , 11 km/h
Temperature: 57°F , 14°C
Dew Point: 55°F , 13°C
Humidity: 94%
2021/06/23 08:00 CWWZ 230800Z AUTO 25006KT 14/13 RMK AO1 SLP180 T01380127 53012
CXVN - Vineland (au8), Ontario, Canada
Distance from station: WNW 38mi, 61km
Updated: 06/23/2021 4:00am

 Wind from SW
Wind: SW 6 mph , 9 km/h
Temperature: 52°F , 11°C
Dew Point: 45°F , 7°C
Humidity: 77%
2021/06/23 08:00 CXVN 230800Z AUTO 23005KT 11/07 RMK AO1 SLP174 T01050072 52012
 
KDKK - Dunkirk, New York, USA
Distance from station: SW 41mi, 66km
Updated: 06/23/2021 3:53am
Clear
Clear
 Wind from SSW
Wind: SSW 6 mph , 9 km/h
Temperature: 52°F , 11°C
Dew Point: 45°F , 7°C
Humidity: 77%
Barometer: 30.07 inHg , 1018.3 hPa
Clouds: Clear
Visibility: 10 miles , 16 km
2021/06/23 07:53 KDKK 230753Z AUTO 20005KT 10SM CLR 11/07 A3007 RMK AO2 SLP184 T01060067
KOLE - Olean, New York, USA
Distance from station: SSE 52mi, 83km
Updated: 06/23/2021 4:35am
Clear
Clear
 Wind from calm
Wind: Calm
Temperature: 43°F , 6°C
Dew Point: 43°F , 6°C
Humidity: 100%
Barometer: 30.10 inHg , 1019.3 hPa
Clouds: Clear
Visibility: 10 miles , 16 km
2021/06/23 08:35 KOLE 230835Z AUTO 00000KT 10SM CLR 06/06 A3010 RMK AO2
 
KROC - Rochester, New York, USA
Distance from station: ENE 55mi, 88km
Updated: 06/23/2021 3:54am
Few Clouds
Few Clouds
 Wind from WSW
Wind: WSW 6 mph , 9 km/h
Temperature: 46°F , 8°C
Wind Chill: 43°F , 6°C
Dew Point: 45°F , 7°C
Humidity: 93%
Barometer: 30.06 inHg , 1017.9 hPa
Clouds: Few Clouds
Visibility: 10 miles , 16 km
Cloud details: Few Clouds 9000 ft
Few Clouds 12000 ft
2021/06/23 07:54 KROC 230754Z 24005KT 10SM FEW090 FEW120 08/07 A3006 RMK AO2 SLP182 T00780067
KDSV - Dansville, New York, USA
Distance from station: ESE 57mi, 92km
Updated: 06/23/2021 3:54am
Few Clouds
Few Clouds
 Wind from SSE
Wind: SSE 3 mph , 6 km/h
Temperature: 48°F , 9°C
Dew Point: 45°F , 7°C
Humidity: 87%
Barometer: 30.08 inHg , 1018.6 hPa
Clouds: Few Clouds
Visibility: 10 miles , 16 km
Cloud details: Few Clouds 6500 ft
2021/06/23 07:54 KDSV 230754Z AUTO 15003KT 10SM FEW065 09/07 A3008 RMK AO2 SLP194 T00890067
 
CWWB - Burlington Piers, Ontario, Canada
Distance from station: WNW 59mi, 94km
Updated: 06/23/2021 4:00am

 Wind from WSW
Wind: WSW 5 mph , 7 km/h
Temperature: 55°F , 13°C
Dew Point: 45°F , 7°C
Humidity: 67%
2021/06/23 08:00 CWWB 230800Z AUTO 25004KT 13/07 RMK AO1 T01260073 51010
CYTZ - Toronto Il Vor, Ontario, Canada
Distance from station: NW 59mi, 95km
Updated: 06/23/2021 4:00am
Clear
Clear
 Wind from W
Wind: W 6 mph , 9 km/h
Temperature: 52°F , 11°C
Dew Point: 45°F , 7°C
Humidity: 77%
Barometer: 30.04 inHg , 1017.3 hPa
Clouds: Clear
Visibility: 9 miles , 14 km
2021/06/23 08:00 CYTZ 230800Z AUTO 27005KT 9SM CLR 11/07 A3004 RMK SLP176
 
CXTO - Toronto City, Ontario, Canada
Distance from station: NW 61mi, 98km
Updated: 06/23/2021 4:00am

 
Temperature: 52°F , 11°C
Dew Point: 43°F , 6°C
Humidity: 72%
2021/06/23 08:00 CXTO 230800Z AUTO 11/06 RMK AO1 SLP176 T01090055 51011
KJHW - Jamestown, New York, USA
Distance from station: SSW 62mi, 99km
Updated: 06/23/2021 3:56am
Clear
Clear
 Wind from S
Wind: S 10 mph , 17 km/h
Temperature: 45°F , 7°C
Wind Chill: 40°F , 4°C
Dew Point: 43°F , 6°C
Humidity: 93%
Barometer: 30.10 inHg , 1019.3 hPa
Clouds: Clear
Visibility: 10 miles , 16 km
2021/06/23 07:56 KJHW 230756Z AUTO 17009KT 10SM CLR 07/06 A3010 RMK AO2 SLP199 T00720061
 
CYHM - Hamilton Airport, Ontario, Canada
Distance from station: WNW 63mi, 101km
Updated: 06/23/2021 4:00am
Few Clouds
Few Clouds
 Wind from SW
Wind: SW 3 mph , 6 km/h
Temperature: 45°F , 7°C
Dew Point: 45°F , 7°C
Humidity: 100%
Barometer: 30.06 inHg , 1017.9 hPa
Clouds: Few Clouds
Visibility: 15 miles , 24 km
Cloud details: Few Clouds 25000 ft
2021/06/23 08:00 CYHM 230800Z 23003KT 15SM FEW250 07/07 A3006 RMK CI1 CI TR SLP182
CXHM - Hamilton Rbg Cs, Ontario, Canada
Distance from station: WNW 64mi, 102km
Updated: 06/23/2021 4:00am

 Wind from NW
Wind: NW 1 mph , 2 km/h
Temperature: 46°F , 8°C
Dew Point: 45°F , 7°C
Humidity: 93%
2021/06/23 08:00 CXHM 230800Z AUTO 31001KT 08/07 RMK AO1 SLP178 T00840068 51009
 
CYYZ - Toronto/Pearson, Ontario, Canada
Distance from station: NW 67mi, 108km
Updated: 06/23/2021 4:00am
Few Clouds
Few Clouds
 Wind from W
Wind: W 3 mph , 6 km/h
Temperature: 50°F , 10°C
Dew Point: 41°F , 5°C
Humidity: 71%
Barometer: 30.04 inHg , 1017.3 hPa
Clouds: Few Clouds
Visibility: 15 miles , 24 km
Cloud details: Few Clouds 10000 ft
2021/06/23 08:00 CYYZ 230800Z 28003KT 15SM FEW100 10/05 A3004 RMK AC1 AC TR SLP177
CYOO - Oshawa, Ontario, Canada
Distance from station: N 68mi, 110km
Updated: 06/23/2021 4:00am
Mostly cloudy
Mostly cloudy
 Wind from WNW
Wind: WNW 2 mph , 4 km/h
Temperature: 46°F , 8°C
Dew Point: 41°F , 5°C
Humidity: 82%
Barometer: 30.04 inHg , 1017.3 hPa
Clouds: Mostly cloudy
Visibility: 9 miles , 14 km
Cloud details: Mostly cloudy 4900 ft
2021/06/23 08:00 CYOO 230800Z AUTO 30002KT 9SM BKN049 08/05 A3004 RMK SLP175
 
KELZ - Wellsville, New York, USA
Distance from station: SE 69mi, 111km
Updated: 06/23/2021 3:56am
Clear
Clear
 Wind from W
Wind: W 8 mph , 13 km/h
Temperature: 45°F , 7°C
Wind Chill: 41°F , 5°C
Dew Point: 43°F , 6°C
Humidity: 93%
Barometer: 30.09 inHg , 1019 hPa
Clouds: Clear
Visibility: 10 miles , 16 km
2021/06/23 07:56 KELZ 230756Z AUTO 27007KT 10SM CLR 07/06 A3009 RMK AO2 SLP195 T00720061
CWNC - Cobourg (mars), Ontario, Canada
Distance from station: NNE 76mi, 122km
Updated: 06/23/2021 4:00am

 Wind from WNW
Wind: WNW 1 mph , 2 km/h
Temperature: 46°F , 8°C
Dew Point: 41°F , 5°C
Humidity: 82%
2021/06/23 08:00 CWNC 230800Z AUTO 30001KT 08/05 RMK AO1 SLP170 T00810050 52013